Time;durP1;ratioP1;P1;durP2;ratioP2;P2;SDS_P1;SDS_P2;PMS_P1;PMS_P2;Temp;Humidity;BMP_temperature;BMP_pressure;BME280_temperature;BME280_humidity;BME280_pressure;Samples;Min_cycle;Max_cycle;Signal;HPM_P1;HPM_P2
2021/05/14 00:00:37;;;;;;;3.80;3.50;;;;;;;14.64;73.28;99546.31;4906776;28;100412;-69
2021/05/14 00:03:03;;;;;;;3.83;3.28;;;;;;;14.60;73.28;99537.22;4900242;28;127051;-62
2021/05/14 00:05:30;;;;;;;3.38;3.08;;;;;;;14.62;73.46;99543.13;4902271;28;98137;-70
2021/05/14 00:07:56;;;;;;;3.60;3.30;;;;;;;14.60;73.28;99534.50;4902143;28;98457;-69
2021/05/14 00:10:22;;;;;;;3.47;3.17;;;;;;;14.60;73.45;99541.84;4890990;28;98496;-62
2021/05/14 00:12:49;;;;;;;3.72;3.33;;;;;;;14.61;73.48;99538.81;4885079;28;98545;-70
2021/05/14 00:15:17;;;;;;;4.30;3.70;;;;;;;14.61;73.08;99540.72;4903351;28;97954;-70
2021/05/14 00:17:43;;;;;;;4.13;3.72;;;;;;;14.59;73.15;99541.03;4900437;28;99883;-62
2021/05/14 00:20:09;;;;;;;3.78;3.35;;;;;;;14.59;73.35;99538.34;4883507;28;106685;-70
2021/05/14 00:22:36;;;;;;;3.63;3.33;;;;;;;14.59;73.44;99541.03;4884316;28;98364;-63
2021/05/14 00:25:02;;;;;;;3.97;3.65;;;;;;;14.57;73.43;99543.25;4903158;28;97741;-62
2021/05/14 00:27:28;;;;;;;4.22;3.83;;;;;;;14.59;73.62;99540.25;4901257;28;116293;-70
2021/05/14 00:29:55;;;;;;;3.85;3.35;;;;;;;14.58;73.53;99539.47;4901612;28;128375;-63
2021/05/14 00:32:21;;;;;;;3.72;3.40;;;;;;;14.57;73.16;99543.25;4895575;28;98119;-63
2021/05/14 00:34:47;;;;;;;4.05;3.50;;;;;;;14.58;73.39;99546.75;4881589;28;117152;-70
2021/05/14 00:37:13;;;;;;;4.00;3.50;;;;;;;14.56;73.51;99544.38;4901016;28;128459;-63
2021/05/14 00:39:39;;;;;;;3.63;3.33;;;;;;;14.58;73.10;99544.06;4900930;28;125810;-63
2021/05/14 00:42:05;;;;;;;4.20;3.75;;;;;;;14.57;73.15;99542.47;4901295;28;128181;-63
2021/05/14 00:44:34;;;;;;;3.90;3.50;;;;;;;14.55;73.21;99542.00;4869096;28;97825;-70
2021/05/14 00:47:06;;;;;;;3.80;3.50;;;;;;;14.53;73.48;99544.22;4899947;28;103827;-71
2021/05/14 00:49:32;;;;;;;4.22;3.78;;;;;;;14.52;73.70;99545.34;4884633;28;98115;-63
2021/05/14 00:51:58;;;;;;;3.95;3.55;;;;;;;14.51;73.36;99541.81;4850943;28;128051;-70
2021/05/14 00:54:25;;;;;;;3.90;3.45;;;;;;;14.47;73.79;99541.63;4884769;28;97977;-63
2021/05/14 00:56:51;;;;;;;4.00;3.60;;;;;;;14.47;74.20;99535.41;4883918;28;107642;-63
2021/05/14 00:59:17;;;;;;;4.10;3.70;;;;;;;14.45;73.22;99545.75;4883841;28;98507;-63
2021/05/14 01:01:43;;;;;;;4.30;3.40;;;;;;;14.43;73.27;99540.66;4901853;28;100634;-63
2021/05/14 01:04:09;;;;;;;3.90;3.47;;;;;;;14.41;73.71;99540.16;4901872;28;97879;-70
2021/05/14 01:06:35;;;;;;;4.40;3.45;;;;;;;14.43;73.70;99532.53;4904244;28;98678;-70
2021/05/14 01:09:02;;;;;;;3.63;3.30;;;;;;;14.41;73.68;99539.38;4904680;28;126286;-63
2021/05/14 01:11:28;;;;;;;3.63;3.30;;;;;;;14.40;73.65;99540.47;4904845;28;113096;-70
2021/05/14 01:13:56;;;;;;;4.30;3.45;;;;;;;14.40;73.84;99538.56;4904806;28;118230;-71
2021/05/14 01:16:23;;;;;;;3.60;3.25;;;;;;;14.37;74.11;99527.56;4905478;28;98568;-63
2021/05/14 01:18:49;;;;;;;4.25;3.42;;;;;;;14.39;73.97;99533.47;4903844;28;121050;-62
2021/05/14 01:21:15;;;;;;;3.40;3.10;;;;;;;14.38;73.30;99540.00;4905471;28;113950;-62
2021/05/14 01:23:41;;;;;;;3.70;3.40;;;;;;;14.36;73.71;99542.22;4870570;28;117056;-62
2021/05/14 01:26:12;;;;;;;3.83;3.50;;;;;;;14.34;73.96;99534.41;4903629;28;127908;-70
2021/05/14 01:28:38;;;;;;;3.78;3.35;;;;;;;14.36;73.92;99543.03;4904897;28;98203;-70
2021/05/14 01:31:05;;;;;;;3.83;3.17;;;;;;;14.34;73.74;99537.09;4905219;28;111542;-62
2021/05/14 01:33:31;;;;;;;3.90;3.17;;;;;;;14.34;74.08;99542.53;4905776;28;97765;-70
2021/05/14 01:35:57;;;;;;;3.42;3.13;;;;;;;14.33;73.51;99540.94;4905085;28;98547;-70
2021/05/14 01:38:23;;;;;;;3.60;3.30;;;;;;;14.34;73.76;99547.16;4904562;28;99251;-62
2021/05/14 01:40:49;;;;;;;3.67;3.20;;;;;;;14.30;73.87;99541.56;4904903;28;98323;-62
2021/05/14 01:43:16;;;;;;;3.42;3.13;;;;;;;14.32;73.76;99547.47;4886511;28;118078;-70
2021/05/14 01:45:42;;;;;;;3.63;3.33;;;;;;;14.29;73.92;99541.88;4886074;28;115056;-62
2021/05/14 01:48:08;;;;;;;3.53;3.22;;;;;;;14.28;74.30;99532.97;4904672;28;118776;-70
2021/05/14 01:50:34;;;;;;;4.22;3.65;;;;;;;14.29;73.49;99541.88;4904948;28;98332;-62
2021/05/14 01:53:00;;;;;;;3.10;2.80;;;;;;;14.28;73.96;99543.81;4904666;28;97924;-62
2021/05/14 01:55:26;;;;;;;3.40;2.80;;;;;;;14.29;73.72;99541.88;4885209;28;126700;-69
2021/05/14 01:57:52;;;;;;;3.53;2.90;;;;;;;14.27;73.80;99539.50;4903281;28;128201;-62
2021/05/14 02:00:19;;;;;;;2.90;2.60;;;;;;;14.25;74.05;99545.22;4904613;28;100146;-62
2021/05/14 02:02:45;;;;;;;3.50;3.10;;;;;;;14.25;74.25;99541.72;4904243;28;97686;-70
2021/05/14 02:05:11;;;;;;;3.30;3.00;;;;;;;14.24;73.71;99543.63;4904826;28;116908;-69
2021/05/14 02:07:37;;;;;;;3.63;2.83;;;;;;;14.24;74.13;99549.03;4903607;28;117682;-62
2021/05/14 02:10:04;;;;;;;3.35;2.67;;;;;;;14.23;73.88;99542.03;4904860;28;98174;-62
2021/05/14 02:12:31;;;;;;;3.25;2.95;;;;;;;14.21;73.86;99538.81;4904725;28;97815;-69
2021/05/14 02:14:57;;;;;;;2.65;2.40;;;;;;;14.21;73.73;99540.75;4904917;28;97855;-70
2021/05/14 02:17:23;;;;;;;3.80;3.20;;;;;;;14.22;73.86;99540.41;4902709;28;127070;-68
2021/05/14 02:19:49;;;;;;;3.78;2.80;;;;;;;14.21;73.92;99538.81;4904046;28;98685;-70
2021/05/14 02:22:15;;;;;;;3.88;3.10;;;;;;;14.19;73.91;99540.28;4905226;28;98330;-69
2021/05/14 02:24:41;;;;;;;4.15;2.92;;;;;;;14.19;74.01;99543.78;4903097;28;128452;-62
2021/05/14 02:27:07;;;;;;;4.15;3.00;;;;;;;14.18;73.95;99538.66;4902660;28;99076;-70
2021/05/14 02:29:34;;;;;;;3.22;2.78;;;;;;;14.17;73.70;99543.28;4902778;28;127801;-70
2021/05/14 02:32:04;;;;;;;2.67;2.47;;;;;;;14.17;73.78;99545.19;4867834;28;98193;-69
2021/05/14 02:34:31;;;;;;;4.50;2.90;;;;;;;14.16;74.04;99544.41;4866709;28;106862;-70
2021/05/14 02:36:57;;;;;;;2.95;2.65;;;;;;;14.15;73.96;99545.50;4883928;28;121859;-62
2021/05/14 02:39:23;;;;;;;3.13;2.75;;;;;;;14.14;73.90;99538.47;4883728;28;114930;-70
2021/05/14 02:41:49;;;;;;;3.30;2.85;;;;;;;14.16;74.00;99543.59;4851356;28;117496;-62
2021/05/14 02:44:15;;;;;;;2.95;2.75;;;;;;;14.14;73.99;99540.38;4865796;28;120502;-70
2021/05/14 02:46:42;;;;;;;3.45;2.88;;;;;;;14.14;73.97;99543.09;4895043;28;98328;-62
2021/05/14 02:49:08;;;;;;;3.58;2.95;;;;;;;14.13;74.03;99539.59;4903550;28;98491;-61
2021/05/14 02:51:34;;;;;;;3.25;2.95;;;;;;;14.11;73.91;99538.28;4903511;28;101795;-74
2021/05/14 02:54:00;;;;;;;3.08;2.78;;;;;;;14.12;73.70;99554.25;4903250;28;128099;-70
2021/05/14 02:56:30;;;;;;;3.22;2.90;;;;;;;14.11;73.74;99551.84;4903831;28;98616;-61
2021/05/14 02:58:56;;;;;;;3.25;2.90;;;;;;;14.11;73.74;99558.09;4902501;28;109604;-70
2021/05/14 03:01:23;;;;;;;3.00;2.70;;;;;;;14.11;73.82;99552.66;4886586;28;103706;-62
2021/05/14 03:03:49;;;;;;;3.10;2.80;;;;;;;14.10;74.07;99553.75;4869633;28;98482;-62
2021/05/14 03:06:15;;;;;;;3.25;2.95;;;;;;;14.10;74.24;99558.38;4902829;28;128175;-70
2021/05/14 03:08:41;;;;;;;3.65;3.22;;;;;;;14.10;74.35;99550.25;4903462;28;98051;-70
2021/05/14 03:11:07;;;;;;;3.95;2.90;;;;;;;14.09;74.01;99549.47;4903407;28;113371;-61
2021/05/14 03:13:33;;;;;;;3.47;3.17;;;;;;;14.09;74.11;99556.78;4903048;28;124852;-70
2021/05/14 03:16:00;;;;;;;3.75;3.40;;;;;;;14.09;73.72;99554.88;4903282;28;97818;-70
2021/05/14 03:18:26;;;;;;;4.00;3.38;;;;;;;14.08;74.00;99549.78;4903409;28;98505;-70
2021/05/14 03:20:54;;;;;;;3.50;3.20;;;;;;;14.09;73.88;99556.78;4901722;28;97935;-70
2021/05/14 03:23:20;;;;;;;3.95;3.65;;;;;;;14.09;74.01;99554.09;4903435;28;99270;-70
2021/05/14 03:25:46;;;;;;;4.40;3.22;;;;;;;14.07;73.86;99551.69;4891044;28;128678;-70
2021/05/14 03:28:12;;;;;;;3.83;3.50;;;;;;;14.07;73.89;99556.28;4892025;28;127176;-61
2021/05/14 03:30:38;;;;;;;4.28;3.42;;;;;;;14.09;74.16;99551.38;4879686;28;109150;-61
2021/05/14 03:33:04;;;;;;;4.57;3.30;;;;;;;14.07;73.88;99554.41;4904199;28;98495;-70
2021/05/14 03:35:31;;;;;;;4.25;3.80;;;;;;;14.06;73.66;99562.81;4903607;28;98551;-70
2021/05/14 03:37:57;;;;;;;4.25;3.47;;;;;;;14.07;74.38;99554.41;4902645;28;98369;-61
2021/05/14 03:42:51;;;;;;;4.15;3.33;;;;;;;14.07;74.23;99557.13;4869736;28;98677;-70
2021/05/14 03:45:18;;;;;;;4.10;3.70;;;;;;;14.08;73.89;99556.00;4903329;28;128201;-61
2021/05/14 03:47:44;;;;;;;4.35;3.80;;;;;;;14.07;73.90;99559.81;4867837;28;127344;-70
2021/05/14 03:50:10;;;;;;;4.63;3.47;;;;;;;14.09;73.90;99564.91;4902470;28;116715;-69
2021/05/14 03:52:36;;;;;;;3.97;3.58;;;;;;;14.07;73.96;99559.81;4902854;28;98815;-70
2021/05/14 03:55:03;;;;;;;4.10;3.63;;;;;;;14.08;73.92;99560.63;4902434;28;128046;-70
2021/05/14 03:57:29;;;;;;;4.30;3.90;;;;;;;14.07;73.99;99559.81;4901708;28;109221;-62
2021/05/14 03:59:55;;;;;;;4.32;3.88;;;;;;;14.09;73.92;99560.28;4885733;28;97875;-61
2021/05/14 04:02:21;;;;;;;4.82;3.78;;;;;;;14.09;73.95;99559.50;4901480;28;128874;-61
2021/05/14 04:04:47;;;;;;;4.25;3.85;;;;;;;14.09;73.88;99562.22;4884422;28;128925;-61
2021/05/14 04:07:14;;;;;;;4.53;3.78;;;;;;;14.07;73.83;99562.53;4884641;28;98124;-70
2021/05/14 04:09:41;;;;;;;4.00;3.65;;;;;;;14.07;73.87;99569.84;4903953;28;97749;-69
2021/05/14 04:14:29;;;;;;;4.97;4.28;;;;;;;14.08;73.80;99564.13;4902334;28;98288;-70
2021/05/14 04:15:03;;;;;;;5.35;3.80;;;;;;;14.07;73.92;99572.56;4876140;28;98512;-71
2021/05/14 04:17:29;;;;;;;4.35;3.80;;;;;;;14.06;74.12;99566.34;4902076;28;98318;-70
2021/05/14 04:19:55;;;;;;;4.30;3.90;;;;;;;14.07;74.00;99575.25;4901745;28;116281;-61
2021/05/14 04:22:21;;;;;;;5.28;4.00;;;;;;;14.06;73.84;99577.16;4885340;28;98298;-62
2021/05/14 04:24:47;;;;;;;4.45;4.05;;;;;;;14.07;73.67;99573.38;4902572;28;98467;-61
2021/05/14 04:27:14;;;;;;;4.25;3.85;;;;;;;14.07;74.14;99575.25;4883528;28;100273;-70
2021/05/14 04:29:41;;;;;;;4.90;4.20;;;;;;;14.08;73.79;99576.88;4902527;28;97865;-61
2021/05/14 04:32:07;;;;;;;5.18;4.07;;;;;;;14.09;73.78;99573.06;4884106;28;98633;-61
2021/05/14 04:34:33;;;;;;;4.78;4.03;;;;;;;14.07;73.74;99575.25;4901883;28;127828;-70
2021/05/14 04:36:59;;;;;;;4.55;4.00;;;;;;;14.14;73.67;99572.91;4879542;28;114709;-70
2021/05/14 04:39:25;;;;;;;4.82;4.38;;;;;;;14.19;73.42;99576.28;4882232;28;117447;-70
2021/05/14 04:41:51;;;;;;;4.40;3.88;;;;;;;14.27;73.28;99577.44;4904369;28;126188;-61
2021/05/14 04:44:18;;;;;;;4.90;4.20;;;;;;;14.33;72.90;99578.88;4904250;28;128937;-71
2021/05/14 04:46:44;;;;;;;4.40;3.80;;;;;;;14.37;72.85;99576.34;4885177;28;122058;-69
2021/05/14 04:49:10;;;;;;;4.65;3.78;;;;;;;14.39;72.37;99583.06;4886471;28;98080;-62
2021/05/14 04:51:36;;;;;;;4.68;4.10;;;;;;;14.45;72.17;99583.72;4885006;28;128216;-69
2021/05/14 04:54:03;;;;;;;4.00;3.60;;;;;;;14.47;72.26;99576.06;4870348;28;98091;-69
2021/05/14 04:56:29;;;;;;;4.03;3.63;;;;;;;14.47;72.65;99578.78;4899968;28;98712;-70
2021/05/14 04:58:56;;;;;;;5.03;3.75;;;;;;;14.48;72.54;99583.09;4902398;28;107174;-61
2021/05/14 05:01:22;;;;;;;4.10;3.70;;;;;;;14.48;72.63;99583.09;4883767;28;119447;-70
2021/05/14 05:03:52;;;;;;;5.05;3.45;;;;;;;14.51;72.46;99587.91;4868258;28;98664;-61
2021/05/14 05:06:18;;;;;;;4.75;3.83;;;;;;;14.50;72.35;99586.31;4901636;28;98390;-62
2021/05/14 05:08:45;;;;;;;4.45;3.53;;;;;;;14.51;72.17;99585.22;4902448;28;104461;-71
2021/05/14 05:11:11;;;;;;;4.18;3.38;;;;;;;14.50;72.24;99589.00;4901339;28;98289;-70
2021/05/14 05:13:37;;;;;;;4.15;3.50;;;;;;;14.50;72.29;99586.31;4883909;28;100817;-62
2021/05/14 05:16:04;;;;;;;4.00;3.60;;;;;;;14.51;72.45;99600.69;4883501;28;109052;-69
2021/05/14 05:18:30;;;;;;;4.28;3.72;;;;;;;14.50;72.58;99591.72;4901603;28;104200;-62
2021/05/14 05:20:56;;;;;;;4.20;3.75;;;;;;;14.51;72.53;99595.25;4883552;28;126627;-62
2021/05/14 05:23:22;;;;;;;4.38;3.30;;;;;;;14.50;72.38;99594.44;4867579;28;98672;-70
2021/05/14 05:25:48;;;;;;;4.75;3.40;;;;;;;14.51;72.81;99600.69;4901809;28;118204;-62
2021/05/14 05:28:19;;;;;;;3.88;3.40;;;;;;;14.51;72.38;99597.97;4901062;28;115659;-71
2021/05/14 05:30:45;;;;;;;4.05;3.47;;;;;;;14.52;72.39;99613.13;4884391;28;109086;-62
2021/05/14 05:33:11;;;;;;;3.47;3.10;;;;;;;14.54;72.67;99613.59;4901495;28;127875;-70
2021/05/14 05:35:37;;;;;;;3.85;3.45;;;;;;;14.54;72.49;99617.13;4900772;28;126801;-62
2021/05/14 05:38:04;;;;;;;4.43;3.50;;;;;;;14.51;72.56;99616.97;4901289;28;117625;-62
2021/05/14 05:40:30;;;;;;;4.35;3.33;;;;;;;14.53;72.74;99622.84;4882685;28;100190;-71
2021/05/14 05:42:56;;;;;;;4.20;3.30;;;;;;;14.54;72.48;99627.97;4901299;28;127097;-63
2021/05/14 05:45:22;;;;;;;6.20;3.58;;;;;;;14.56;72.68;99619.50;4882808;28;127612;-62
2021/05/14 05:47:48;;;;;;;4.00;3.60;;;;;;;14.54;72.89;99624.44;4878678;28;98421;-63
2021/05/14 05:50:15;;;;;;;3.72;3.25;;;;;;;14.57;72.93;99630.03;4882242;28;126959;-70
2021/05/14 05:52:41;;;;;;;4.82;3.90;;;;;;;14.58;72.68;99630.84;4881659;28;127495;-63
2021/05/14 05:55:07;;;;;;;4.13;3.72;;;;;;;14.58;72.57;99634.38;4850485;28;127881;-63
2021/05/14 05:57:33;;;;;;;4.07;3.53;;;;;;;14.58;72.84;99644.38;4901217;28;98031;-63
2021/05/14 05:59:59;;;;;;;4.13;3.40;;;;;;;14.58;72.71;99638.97;4899576;28;128989;-63
2021/05/14 06:02:25;;;;;;;4.40;4.00;;;;;;;14.60;72.58;99642.97;4899518;28;128005;-71
2021/05/14 06:04:51;;;;;;;5.15;3.75;;;;;;;14.62;72.71;99648.06;4899123;28;98367;-63
2021/05/14 06:07:18;;;;;;;4.20;3.80;;;;;;;14.66;72.71;99644.44;4900512;28;117249;-63
2021/05/14 06:09:44;;;;;;;4.68;3.88;;;;;;;14.68;72.95;99650.34;4901171;28;98104;-72
2021/05/14 06:12:10;;;;;;;4.47;3.70;;;;;;;14.72;72.46;99647.81;4866075;28;127348;-71
2021/05/14 06:14:36;;;;;;;4.65;3.63;;;;;;;14.76;72.38;99650.69;4882855;28;117734;-71
2021/05/14 06:17:10;;;;;;;4.55;3.90;;;;;;;14.77;72.53;99647.66;4899977;28;117862;-72
2021/05/14 06:19:43;;;;;;;4.43;3.88;;;;;;;14.83;72.14;99637.47;4901013;28;98340;-72
2021/05/14 06:22:09;;;;;;;4.63;3.88;;;;;;;14.86;72.11;99648.50;4901519;28;98786;-63
2021/05/14 06:24:35;;;;;;;5.28;4.18;;;;;;;14.93;72.05;99645.31;4899380;28;126152;-72
2021/05/14 06:27:01;;;;;;;4.82;4.10;;;;;;;14.98;72.22;99650.59;4899852;28;118432;-72
2021/05/14 06:29:27;;;;;;;5.18;3.88;;;;;;;15.06;72.06;99654.44;4898912;28;128360;-63
2021/05/14 06:31:53;;;;;;;4.95;3.72;;;;;;;15.15;71.91;99657.97;4898148;28;128346;-64
2021/05/14 06:34:19;;;;;;;4.82;3.83;;;;;;;15.20;71.74;99646.94;4900579;28;98525;-72
2021/05/14 06:36:45;;;;;;;4.50;3.72;;;;;;;15.29;71.19;99652.38;4899667;28;118888;-63
2021/05/14 06:39:11;;;;;;;4.10;3.70;;;;;;;15.35;71.46;99654.63;4899343;28;126076;-73
2021/05/14 06:41:37;;;;;;;4.38;3.97;;;;;;;15.45;71.46;99658.97;4881721;28;124055;-72
2021/05/14 06:44:03;;;;;;;4.82;3.90;;;;;;;15.52;71.27;99653.03;4900934;28;98024;-64
2021/05/14 06:46:31;;;;;;;4.82;3.80;;;;;;;15.56;71.07;99662.97;4900568;28;97984;-64
2021/05/14 06:48:57;;;;;;;4.03;3.33;;;;;;;15.65;71.18;99663.00;4900097;28;115387;-72
2021/05/14 06:51:23;;;;;;;5.57;3.38;;;;;;;15.69;70.99;99663.94;4899138;28;127876;-72
2021/05/14 06:53:50;;;;;;;4.43;3.80;;;;;;;15.75;70.95;99662.66;4899727;28;127579;-65
2021/05/14 06:56:16;;;;;;;3.80;3.35;;;;;;;15.78;70.71;99664.72;4900044;28;98600;-64
2021/05/14 06:58:42;;;;;;;4.82;3.65;;;;;;;15.84;71.16;99665.38;4892859;28;98112;-72
2021/05/14 07:01:09;;;;;;;3.85;3.45;;;;;;;15.89;70.30;99668.72;4900030;28;99102;-64
2021/05/14 07:03:35;;;;;;;3.80;3.40;;;;;;;15.95;71.23;99661.19;4900702;28;98301;-64
2021/05/14 07:06:01;;;;;;;3.80;3.05;;;;;;;15.97;70.50;99669.03;4881645;28;118017;-72
2021/05/14 07:08:27;;;;;;;4.10;3.30;;;;;;;16.02;70.55;99666.13;4882423;28;98519;-72
2021/05/14 07:10:53;;;;;;;3.90;3.20;;;;;;;16.04;70.64;99666.63;4862569;28;128254;-72
2021/05/14 07:13:19;;;;;;;3.67;3.30;;;;;;;16.07;70.87;99663.25;4891362;28;103331;-64
2021/05/14 07:15:47;;;;;;;4.30;3.47;;;;;;;16.11;70.83;99669.63;4900377;28;98177;-64
2021/05/14 07:18:13;;;;;;;4.07;3.38;;;;;;;16.17;70.36;99676.50;4900355;28;98209;-64
2021/05/14 07:20:39;;;;;;;3.80;3.28;;;;;;;16.18;70.42;99678.09;4881606;28;120930;-72
2021/05/14 07:23:05;;;;;;;3.85;3.17;;;;;;;16.30;70.59;99675.50;4899526;28;127343;-64
2021/05/14 07:25:31;;;;;;;4.40;3.30;;;;;;;16.40;69.69;99677.09;4900431;28;97820;-64
2021/05/14 07:27:58;;;;;;;3.20;2.90;;;;;;;16.47;69.62;99682.84;4900035;28;98717;-64
2021/05/14 07:30:24;;;;;;;3.40;3.08;;;;;;;16.61;69.43;99683.41;4866424;28;98236;-64
2021/05/14 07:32:50;;;;;;;3.53;3.13;;;;;;;16.71;69.22;99671.38;4898859;28;110366;-64
2021/05/14 07:35:16;;;;;;;3.80;3.40;;;;;;;16.85;68.72;99673.88;4900429;28;97761;-72
2021/05/14 07:37:42;;;;;;;3.28;2.97;;;;;;;16.98;68.69;99675.59;4881505;28;98469;-72
2021/05/14 07:40:10;;;;;;;3.28;2.95;;;;;;;17.11;67.96;99671.03;4899752;28;100559;-72
2021/05/14 07:42:36;;;;;;;3.42;3.13;;;;;;;17.20;68.31;99668.25;4882291;28;98031;-72
2021/05/14 07:45:04;;;;;;;4.03;3.00;;;;;;;17.37;68.07;99668.13;4900378;28;97943;-64
2021/05/14 07:47:30;;;;;;;3.05;2.58;;;;;;;17.47;67.74;99672.38;4865502;28;109252;-72
2021/05/14 07:49:56;;;;;;;3.25;2.78;;;;;;;17.58;67.48;99671.66;4880568;28;128614;-72
2021/05/14 07:52:22;;;;;;;3.95;3.08;;;;;;;17.76;67.21;99675.03;4865452;28;98215;-72
2021/05/14 07:54:48;;;;;;;3.60;2.95;;;;;;;17.94;67.05;99678.41;4879033;28;97685;-64
2021/05/14 07:57:14;;;;;;;3.30;3.00;;;;;;;17.99;66.77;99677.41;4879126;28;127010;-64
2021/05/14 07:59:40;;;;;;;3.33;2.78;;;;;;;18.10;66.48;99675.88;4881056;28;128173;-73
2021/05/14 08:02:06;;;;;;;2.90;2.47;;;;;;;18.04;66.00;99685.41;4880725;28;127919;-64
2021/05/14 08:04:32;;;;;;;3.42;2.50;;;;;;;18.09;66.81;99687.91;4881069;28;117141;-73
2021/05/14 08:06:58;;;;;;;3.08;2.53;;;;;;;18.03;66.57;99689.25;4898320;28;127168;-72
2021/05/14 08:09:24;;;;;;;2.75;2.15;;;;;;;18.01;66.46;99696.97;4899365;28;127853;-64
2021/05/14 08:11:51;;;;;;;2.60;2.20;;;;;;;18.03;67.42;99703.66;4899310;28;99195;-64
2021/05/14 08:14:20;;;;;;;2.55;2.17;;;;;;;17.85;67.60;99703.03;4899739;28;98178;-72
2021/05/14 08:16:46;;;;;;;2.58;2.15;;;;;;;17.93;67.87;99700.56;4897430;28;99130;-64
2021/05/14 08:19:12;;;;;;;4.22;2.40;;;;;;;17.89;67.83;99692.28;4899589;28;98871;-72
2021/05/14 08:21:43;;;;;;;2.65;2.05;;;;;;;17.95;67.98;99699.09;4862691;28;100528;-63
2021/05/14 08:24:09;;;;;;;2.33;1.90;;;;;;;17.93;68.29;99712.28;4897277;28;98032;-72
2021/05/14 08:26:36;;;;;;;2.50;2.00;;;;;;;17.86;68.14;99718.25;4897807;28;112104;-63
2021/05/14 08:29:02;;;;;;;2.53;1.77;;;;;;;17.88;68.44;99710.56;4892435;28;98032;-71
2021/05/14 08:31:28;;;;;;;2.20;1.98;;;;;;;17.96;68.51;99724.41;4889312;28;98234;-72
2021/05/14 08:33:54;;;;;;;2.80;1.67;;;;;;;17.99;67.96;99715.59;4891451;28;97991;-64
2021/05/14 08:36:20;;;;;;;1.77;1.40;;;;;;;18.05;67.93;99708.81;4894114;28;99216;-64
2021/05/14 08:38:47;;;;;;;2.85;1.70;;;;;;;18.01;68.17;99716.84;4899406;28;98787;-72
2021/05/14 08:41:13;;;;;;;1.75;1.48;;;;;;;17.98;68.73;99719.44;4894576;28;125038;-72
2021/05/14 08:43:39;;;;;;;2.20;1.45;;;;;;;17.91;68.45;99726.22;4899721;28;98004;-72
2021/05/14 08:46:05;;;;;;;2.17;1.27;;;;;;;17.87;68.62;99725.28;4899162;28;99135;-63
2021/05/14 08:48:32;;;;;;;2.03;1.30;;;;;;;17.76;68.88;99731.47;4880431;28;103619;-72
2021/05/14 08:51:03;;;;;;;1.90;1.27;;;;;;;17.63;69.45;99731.38;4893932;28;97884;-72
2021/05/14 08:53:29;;;;;;;1.40;1.00;;;;;;;17.64;69.15;99737.63;4878144;28;98299;-64
2021/05/14 08:55:56;;;;;;;2.17;0.98;;;;;;;17.66;69.02;99741.63;4893713;28;98484;-72
2021/05/14 08:58:22;;;;;;;1.83;1.00;;;;;;;17.77;69.02;99738.56;4872081;28;98242;-63
2021/05/14 09:00:48;;;;;;;2.63;1.10;;;;;;;17.93;67.93;99739.53;4890905;28;125608;-72
2021/05/14 09:03:15;;;;;;;1.65;0.82;;;;;;;18.02;68.24;99744.91;4889775;28;117452;-71
2021/05/14 09:05:42;;;;;;;1.35;1.00;;;;;;;17.86;68.47;99753.69;4896148;28;98569;-64
2021/05/14 09:08:08;;;;;;;1.70;1.00;;;;;;;17.82;68.72;99752.75;4894339;28;99100;-63
2021/05/14 09:10:34;;;;;;;1.52;0.80;;;;;;;17.96;68.62;99747.06;4899030;28;98541;-63
2021/05/14 09:13:00;;;;;;;1.95;1.00;;;;;;;18.04;68.38;99756.28;4861036;28;99334;-63
2021/05/14 09:15:33;;;;;;;1.55;0.80;;;;;;;18.02;67.07;99756.59;4896470;28;99014;-72
2021/05/14 09:18:19;;;;;;;1.55;0.95;;;;;;;18.22;66.06;99749.53;4895404;28;98363;-72
2021/05/14 09:20:53;;;;;;;1.20;0.80;;;;;;;18.29;66.18;99757.19;4897173;28;99631;-63
2021/05/14 09:23:22;;;;;;;1.20;0.70;;;;;;;18.46;64.92;99753.47;4897638;28;98071;-63
2021/05/14 09:25:54;;;;;;;1.00;0.43;;;;;;;18.66;64.75;99755.34;4893333;28;98785;-63
2021/05/14 09:28:25;;;;;;;;;;;;;;;18.87;64.50;99764.28;4902000;28;98415;-63
2021/05/14 09:31:14;;;;;;;1.30;0.55;;;;;;;18.67;65.62;99765.13;4883779;28;98057;-71
2021/05/14 09:33:56;;;;;;;1.00;0.50;;;;;;;18.68;65.89;99766.72;4880222;28;98103;-72
2021/05/14 09:36:30;;;;;;;0.80;0.40;;;;;;;18.80;66.53;99760.53;4877755;28;98258;-63
2021/05/14 09:39:01;;;;;;;1.30;0.50;;;;;;;19.03;65.86;99766.34;4893866;28;102006;-71
2021/05/14 09:41:46;;;;;;;0.98;0.40;;;;;;;19.19;67.27;99771.94;4891472;28;97945;-71
2021/05/14 09:44:15;;;;;;;0.95;0.30;;;;;;;19.08;67.15;99766.13;4875176;28;117359;-71
2021/05/14 09:46:51;;;;;;;1.77;0.45;;;;;;;19.03;67.12;99771.81;4900177;28;98398;-71
2021/05/14 09:49:22;;;;;;;1.67;0.40;;;;;;;19.00;66.84;99772.50;4901120;28;109508;-63
2021/05/14 09:51:52;;;;;;;1.40;0.40;;;;;;;18.94;66.70;99776.56;4882574;28;98905;-63
2021/05/14 09:54:35;;;;;;;0.95;0.38;;;;;;;18.89;67.18;99777.59;4900882;28;98249;-71
2021/05/14 10:00:00;;;;;;;1.25;0.40;;;;;;;19.52;65.57;99769.84;4899088;28;98315;-71
2021/05/14 10:02:31;;;;;;;1.10;0.35;;;;;;;19.65;66.00;99770.69;4892692;28;98669;-64
2021/05/14 10:04:59;;;;;;;1.67;0.30;;;;;;;19.50;66.01;99763.16;4901748;28;98100;-71
2021/05/14 10:07:29;;;;;;;1.02;0.30;;;;;;;19.58;65.96;99770.44;4900672;28;98522;-64
2021/05/14 10:09:58;;;;;;;1.20;0.40;;;;;;;19.36;66.57;99777.94;4883365;28;98111;-63
2021/05/14 10:12:24;;;;;;;0.70;0.20;;;;;;;19.17;66.79;99772.25;4899048;28;98170;-71
2021/05/14 10:14:56;;;;;;;1.20;0.30;;;;;;;19.24;65.79;99779.91;4880302;28;106437;-63
2021/05/14 10:17:22;;;;;;;0.57;0.23;;;;;;;19.34;66.26;99779.44;4896511;28;98120;-63
2021/05/14 10:19:48;;;;;;;0.73;0.22;;;;;;;19.33;67.24;99773.16;4899735;28;125872;-72
2021/05/14 10:22:15;;;;;;;1.13;0.30;;;;;;;19.41;66.82;99776.91;4865218;28;98185;-63
2021/05/14 10:24:46;;;;;;;1.23;0.35;;;;;;;19.43;66.83;99771.13;4899254;28;118284;-65
2021/05/14 10:27:25;;;;;;;1.45;0.30;;;;;;;19.60;66.03;99768.13;4898448;28;98910;-64
2021/05/14 10:29:58;;;;;;;0.93;0.30;;;;;;;20.09;65.51;99768.03;4898530;28;98174;-70
2021/05/14 10:32:46;;;;;;;0.88;0.20;;;;;;;20.74;64.55;99762.38;4905120;28;98118;-63
2021/05/14 10:35:26;;;;;;;1.45;0.30;;;;;;;21.02;63.94;99759.53;4901520;28;98504;-64
2021/05/14 10:38:08;;;;;;;1.10;0.30;;;;;;;21.57;63.19;99757.72;4897929;28;99294;-71
2021/05/14 10:40:35;;;;;;;0.80;0.25;;;;;;;21.99;62.23;99759.78;4900804;28;98624;-71
2021/05/14 10:43:03;;;;;;;0.60;0.20;;;;;;;21.75;63.31;99758.91;4900309;28;98232;-64
2021/05/14 10:45:35;;;;;;;1.15;0.30;;;;;;;21.29;64.45;99766.06;4901306;28;97913;-71
2021/05/14 10:48:02;;;;;;;1.23;0.30;;;;;;;21.11;64.22;99762.91;4872131;28;99221;-71
2021/05/14 10:50:39;;;;;;;1.40;0.30;;;;;;;21.94;62.59;99760.09;4882113;28;102894;-64
2021/05/14 10:53:17;;;;;;;0.52;0.20;;;;;;;22.13;62.39;99754.63;4895064;28;98140;-64
2021/05/14 10:55:44;;;;;;;1.17;0.30;;;;;;;22.42;61.55;99750.47;4900108;28;98146;-70
2021/05/14 10:58:30;;;;;;;1.00;0.22;;;;;;;23.28;59.56;99758.22;4898312;28;106206;-71
2021/05/14 11:00:56;;;;;;;1.15;0.30;;;;;;;24.19;57.62;99753.56;4896720;28;98615;-71
2021/05/14 11:03:22;;;;;;;1.25;0.30;;;;;;;25.47;54.74;99761.44;4899840;28;98274;-64
2021/05/14 11:05:49;;;;;;;0.68;0.30;;;;;;;27.86;49.16;99741.66;4898022;28;97995;-71
2021/05/14 11:08:34;;;;;;;1.10;0.20;;;;;;;27.56;51.17;99756.00;4895948;28;98459;-64
2021/05/14 11:11:02;;;;;;;1.25;0.20;;;;;;;26.94;52.75;99748.91;4892859;28;98728;-71
2021/05/14 11:13:47;;;;;;;1.20;0.30;;;;;;;26.54;54.10;99758.38;4879869;28;112717;-65
2021/05/14 11:16:42;;;;;;;0.93;0.20;;;;;;;25.79;56.17;99758.88;4900955;28;98057;-71
2021/05/14 11:19:25;;;;;;;0.98;0.30;;;;;;;25.02;57.86;99763.44;4898213;28;98460;-64
2021/05/14 11:22:07;;;;;;;1.27;0.20;;;;;;;24.74;58.33;99758.47;4882808;28;98846;-71
2021/05/14 11:25:02;;;;;;;0.80;0.20;;;;;;;24.41;58.94;99753.84;4893610;28;98098;-71
2021/05/14 11:27:35;;;;;;;0.98;0.22;;;;;;;23.97;59.86;99751.72;4889906;28;106615;-64
2021/05/14 11:30:09;;;;;;;1.73;0.30;;;;;;;23.69;60.13;99749.41;4899121;28;98515;-65
2021/05/14 11:32:45;;;;;;;1.63;0.22;;;;;;;23.83;59.77;99749.59;4897026;28;98837;-71
2021/05/14 11:35:19;;;;;;;1.27;0.20;;;;;;;24.18;58.52;99746.47;4899564;28;98119;-64
2021/05/14 11:37:56;;;;;;;1.33;0.20;;;;;;;24.65;57.50;99747.78;4899167;28;103112;-64